sensor_id;sensor_type;location;lat;lon;timestamp;pressure;altitude;pressure_sealevel;temperature;humidity
69247;BME280;56358;56.328;43.992;2023-08-12T00:00:21;101253.88;;;21.90;59.35
69247;BME280;56358;56.328;43.992;2023-08-12T00:02:22;101358.31;;;22.49;59.73
69247;BME280;56358;56.328;43.992;2023-08-12T00:04:22;101350.66;;;22.44;59.85
69247;BME280;56358;56.328;43.992;2023-08-12T00:06:23;101364.34;;;22.36;60.00
69247;BME280;56358;56.328;43.992;2023-08-12T00:08:24;101343.84;;;22.23;60.28
69247;BME280;56358;56.328;43.992;2023-08-12T00:10:24;101362.63;;;22.26;60.84
69247;BME280;56358;56.328;43.992;2023-08-12T00:12:25;101357.50;;;22.23;61.58
69247;BME280;56358;56.328;43.992;2023-08-12T00:14:26;101331.78;;;22.09;63.19
69247;BME280;56358;56.328;43.992;2023-08-12T00:16:27;101352.25;;;22.14;63.41
69247;BME280;56358;56.328;43.992;2023-08-12T00:18:27;101333.50;;;21.94;63.47
69247;BME280;56358;56.328;43.992;2023-08-12T00:20:29;101332.50;;;21.87;63.93
69247;BME280;56358;56.328;43.992;2023-08-12T00:22:30;101346.16;;;21.95;63.26
69247;BME280;56358;56.328;43.992;2023-08-12T00:24:31;101352.81;;;21.92;62.70
69247;BME280;56358;56.328;43.992;2023-08-12T00:26:31;101343.41;;;21.95;62.29
69247;BME280;56358;56.328;43.992;2023-08-12T00:28:32;101330.47;;;21.97;62.11
69247;BME280;56358;56.328;43.992;2023-08-12T00:30:33;101345.28;;;22.03;62.08
69247;BME280;56358;56.328;43.992;2023-08-12T00:32:34;101322.28;;;21.89;61.74
69247;BME280;56358;56.328;43.992;2023-08-12T00:34:36;101261.28;;;21.57;62.06
69247;BME280;56358;56.328;43.992;2023-08-12T00:36:36;101339.13;;;22.01;62.51
69247;BME280;56358;56.328;43.992;2023-08-12T00:38:37;101338.13;;;21.93;62.79
69247;BME280;56358;56.328;43.992;2023-08-12T00:40:38;101341.41;;;21.72;63.88
69247;BME280;56358;56.328;43.992;2023-08-12T00:42:38;101341.25;;;21.57;63.91
69247;BME280;56358;56.328;43.992;2023-08-12T00:44:39;101343.31;;;21.55;64.01
69247;BME280;56358;56.328;43.992;2023-08-12T00:46:41;101336.97;;;21.47;64.45
69247;BME280;56358;56.328;43.992;2023-08-12T00:48:42;101332.34;;;21.39;64.40
69247;BME280;56358;56.328;43.992;2023-08-12T00:50:43;101349.94;;;21.45;64.78
69247;BME280;56358;56.328;43.992;2023-08-12T00:52:44;101343.25;;;21.39;64.40
69247;BME280;56358;56.328;43.992;2023-08-12T00:54:45;101358.09;;;21.53;64.42
69247;BME280;56358;56.328;43.992;2023-08-12T00:56:49;101355.75;;;21.58;64.09
69247;BME280;56358;56.328;43.992;2023-08-12T00:58:50;101347.75;;;21.65;63.66
69247;BME280;56358;56.328;43.992;2023-08-12T01:00:51;101239.66;;;21.06;63.61
69247;BME280;56358;56.328;43.992;2023-08-12T01:02:51;101316.69;;;21.57;63.73
69247;BME280;56358;56.328;43.992;2023-08-12T01:04:52;101338.69;;;21.64;63.63
69247;BME280;56358;56.328;43.992;2023-08-12T01:06:53;101345.16;;;21.63;63.86
69247;BME280;56358;56.328;43.992;2023-08-12T01:08:54;101325.38;;;21.53;63.84
69247;BME280;56358;56.328;43.992;2023-08-12T01:11:02;101324.16;;;21.47;64.27
69247;BME280;56358;56.328;43.992;2023-08-12T01:15:25;101354.88;;;21.66;64.09
69247;BME280;56358;56.328;43.992;2023-08-12T01:17:29;101333.59;;;21.61;64.16
69247;BME280;56358;56.328;43.992;2023-08-12T01:19:35;101338.00;;;21.54;64.38
69247;BME280;56358;56.328;43.992;2023-08-12T01:21:41;101347.03;;;21.63;64.08
69247;BME280;56358;56.328;43.992;2023-08-12T01:23:44;101353.53;;;21.62;64.62
69247;BME280;56358;56.328;43.992;2023-08-12T01:25:46;101348.75;;;21.55;64.59
69247;BME280;56358;56.328;43.992;2023-08-12T01:27:47;101337.31;;;21.52;64.43
69247;BME280;56358;56.328;43.992;2023-08-12T01:29:51;101333.88;;;21.50;64.67
69247;BME280;56358;56.328;43.992;2023-08-12T01:32:17;101350.44;;;21.56;64.50
69247;BME280;56358;56.328;43.992;2023-08-12T01:34:29;101343.09;;;21.49;64.63
69247;BME280;56358;56.328;43.992;2023-08-12T01:36:35;101355.91;;;21.56;64.83
69247;BME280;56358;56.328;43.992;2023-08-12T01:38:38;101356.41;;;21.52;64.50
69247;BME280;56358;56.328;43.992;2023-08-12T01:40:40;101358.09;;;21.53;64.98
69247;BME280;56358;56.328;43.992;2023-08-12T01:42:42;101314.44;;;21.20;64.85
69247;BME280;56358;56.328;43.992;2023-08-12T01:44:43;101363.88;;;21.50;64.49
69247;BME280;56358;56.328;43.992;2023-08-12T01:46:44;101362.88;;;21.51;64.74
69247;BME280;56358;56.328;43.992;2023-08-12T01:48:44;101361.16;;;21.50;64.43
69247;BME280;56358;56.328;43.992;2023-08-12T01:50:45;101298.75;;;21.14;64.52
69247;BME280;56358;56.328;43.992;2023-08-12T01:52:48;101352.13;;;21.41;64.88
69247;BME280;56358;56.328;43.992;2023-08-12T01:54:48;101360.13;;;21.51;64.97
69247;BME280;56358;56.328;43.992;2023-08-12T01:56:49;101352.31;;;21.48;65.29
69247;BME280;56358;56.328;43.992;2023-08-12T01:58:50;101361.84;;;21.43;65.74
69247;BME280;56358;56.328;43.992;2023-08-12T02:00:50;101334.41;;;21.29;65.57
69247;BME280;56358;56.328;43.992;2023-08-12T02:02:51;101353.84;;;21.42;65.62
69247;BME280;56358;56.328;43.992;2023-08-12T02:04:52;101354.16;;;21.39;65.88
69247;BME280;56358;56.328;43.992;2023-08-12T02:06:53;101362.16;;;21.40;66.07
69247;BME280;56358;56.328;43.992;2023-08-12T02:08:54;101326.06;;;21.22;66.32
69247;BME280;56358;56.328;43.992;2023-08-12T02:10:55;101361.84;;;21.35;66.36
69247;BME280;56358;56.328;43.992;2023-08-12T02:12:55;101353.69;;;21.35;66.49
69247;BME280;56358;56.328;43.992;2023-08-12T02:14:56;101357.25;;;21.36;66.42
69247;BME280;56358;56.328;43.992;2023-08-12T02:16:57;101368.69;;;21.39;66.17
69247;BME280;56358;56.328;43.992;2023-08-12T02:18:58;101347.53;;;21.33;65.96
69247;BME280;56358;56.328;43.992;2023-08-12T02:20:58;101333.53;;;21.28;65.85
69247;BME280;56358;56.328;43.992;2023-08-12T02:22:59;101359.13;;;21.43;65.60
69247;BME280;56358;56.328;43.992;2023-08-12T02:25:00;101359.63;;;21.47;65.26
69247;BME280;56358;56.328;43.992;2023-08-12T02:27:00;101330.81;;;21.36;64.92
69247;BME280;56358;56.328;43.992;2023-08-12T02:29:01;101345.31;;;21.45;64.89
69247;BME280;56358;56.328;43.992;2023-08-12T02:31:02;101311.06;;;21.26;65.13
69247;BME280;56358;56.328;43.992;2023-08-12T02:33:03;101354.88;;;21.57;65.04
69247;BME280;56358;56.328;43.992;2023-08-12T02:35:04;101355.91;;;21.56;64.58
69247;BME280;56358;56.328;43.992;2023-08-12T02:37:05;101361.53;;;21.63;64.72
69247;BME280;56358;56.328;43.992;2023-08-12T02:39:06;101290.78;;;21.29;64.52
69247;BME280;56358;56.328;43.992;2023-08-12T02:41:06;101308.50;;;21.33;64.38
69247;BME280;56358;56.328;43.992;2023-08-12T02:43:07;101306.09;;;21.46;64.17
69247;BME280;56358;56.328;43.992;2023-08-12T02:45:08;101359.00;;;21.78;63.64
69247;BME280;56358;56.328;43.992;2023-08-12T02:47:09;101348.72;;;21.80;63.43
69247;BME280;56358;56.328;43.992;2023-08-12T02:49:09;101360.84;;;21.86;62.93
69247;BME280;56358;56.328;43.992;2023-08-12T02:51:10;101355.03;;;21.89;62.66
69247;BME280;56358;56.328;43.992;2023-08-12T02:53:11;101356.88;;;21.97;61.82
69247;BME280;56358;56.328;43.992;2023-08-12T02:55:12;101349.22;;;22.00;61.67
69247;BME280;56358;56.328;43.992;2023-08-12T02:57:13;101351.91;;;22.08;60.50
69247;BME280;56358;56.328;43.992;2023-08-12T02:59:13;101362.34;;;22.13;59.52
69247;BME280;56358;56.328;43.992;2023-08-12T03:01:14;101343.53;;;22.10;58.74
69247;BME280;56358;56.328;43.992;2023-08-12T03:03:16;101358.84;;;22.27;58.78
69247;BME280;56358;56.328;43.992;2023-08-12T03:05:16;101367.91;;;22.36;58.75
69247;BME280;56358;56.328;43.992;2023-08-12T03:07:17;101360.72;;;22.43;58.93
69247;BME280;56358;56.328;43.992;2023-08-12T03:09:18;101361.03;;;22.49;58.67
69247;BME280;56358;56.328;43.992;2023-08-12T03:11:20;101357.78;;;22.53;57.89
69247;BME280;56358;56.328;43.992;2023-08-12T03:13:21;101356.41;;;22.57;57.34
69247;BME280;56358;56.328;43.992;2023-08-12T03:15:22;101343.94;;;22.55;57.66
69247;BME280;56358;56.328;43.992;2023-08-12T03:17:22;101351.72;;;22.66;58.35
69247;BME280;56358;56.328;43.992;2023-08-12T03:19:23;101355.81;;;22.70;58.78
69247;BME280;56358;56.328;43.992;2023-08-12T03:21:24;101349.50;;;22.70;56.94
69247;BME280;56358;56.328;43.992;2023-08-12T03:23:24;101343.66;;;22.73;56.82
69247;BME280;56358;56.328;43.992;2023-08-12T03:25:25;101349.88;;;22.67;55.85
69247;BME280;56358;56.328;43.992;2023-08-12T03:27:26;101354.09;;;22.77;55.92
69247;BME280;56358;56.328;43.992;2023-08-12T03:29:27;101288.47;;;22.46;56.26
69247;BME280;56358;56.328;43.992;2023-08-12T03:31:27;101353.47;;;22.90;55.65
69247;BME280;56358;56.328;43.992;2023-08-12T03:33:28;101355.00;;;22.93;55.51
69247;BME280;56358;56.328;43.992;2023-08-12T03:35:29;101352.59;;;22.98;55.21
69247;BME280;56358;56.328;43.992;2023-08-12T03:37:29;101343.69;;;23.04;55.27
69247;BME280;56358;56.328;43.992;2023-08-12T03:39:30;101353.41;;;23.07;55.07
69247;BME280;56358;56.328;43.992;2023-08-12T03:41:31;101361.25;;;23.10;54.43
69247;BME280;56358;56.328;43.992;2023-08-12T03:43:31;101346.88;;;23.16;54.05
69247;BME280;56358;56.328;43.992;2023-08-12T03:45:43;101354.91;;;23.18;54.14
69247;BME280;56358;56.328;43.992;2023-08-12T03:47:44;101347.53;;;23.18;53.95
69247;BME280;56358;56.328;43.992;2023-08-12T03:49:45;101285.00;;;22.84;54.64
69247;BME280;56358;56.328;43.992;2023-08-12T03:51:45;101357.94;;;23.23;54.32
69247;BME280;56358;56.328;43.992;2023-08-12T03:53:46;101332.16;;;23.17;53.99
69247;BME280;56358;56.328;43.992;2023-08-12T03:55:47;101308.59;;;23.08;54.18
69247;BME280;56358;56.328;43.992;2023-08-12T03:57:47;101283.59;;;22.96;53.79
69247;BME280;56358;56.328;43.992;2023-08-12T03:59:48;101339.75;;;23.30;52.96
69247;BME280;56358;56.328;43.992;2023-08-12T04:01:49;101268.91;;;22.89;52.84
69247;BME280;56358;56.328;43.992;2023-08-12T04:03:49;101335.81;;;23.33;52.77
69247;BME280;56358;56.328;43.992;2023-08-12T04:05:51;101339.19;;;23.35;52.14
69247;BME280;56358;56.328;43.992;2023-08-12T04:07:52;101346.88;;;23.39;52.32
69247;BME280;56358;56.328;43.992;2023-08-12T04:09:53;101308.81;;;23.30;52.04
69247;BME280;56358;56.328;43.992;2023-08-12T04:11:53;101336.34;;;23.51;52.03
69247;BME280;56358;56.328;43.992;2023-08-12T04:13:54;101321.31;;;23.47;51.92
69247;BME280;56358;56.328;43.992;2023-08-12T04:15:55;101350.91;;;23.67;51.93
69247;BME280;56358;56.328;43.992;2023-08-12T04:17:55;101328.69;;;23.62;51.97
69247;BME280;56358;56.328;43.992;2023-08-12T04:19:56;101305.47;;;23.57;51.54
69247;BME280;56358;56.328;43.992;2023-08-12T04:21:57;101332.13;;;23.79;51.58
69247;BME280;56358;56.328;43.992;2023-08-12T04:23:58;101335.66;;;23.87;51.01
69247;BME280;56358;56.328;43.992;2023-08-12T04:25:58;101288.13;;;23.65;51.44
69247;BME280;56358;56.328;43.992;2023-08-12T04:27:59;101284.94;;;23.76;50.94
69247;BME280;56358;56.328;43.992;2023-08-12T04:29:59;101319.81;;;23.98;50.74
69247;BME280;56358;56.328;43.992;2023-08-12T04:32:00;101330.13;;;24.10;50.47
69247;BME280;56358;56.328;43.992;2023-08-12T04:34:01;101291.50;;;23.90;50.34
69247;BME280;56358;56.328;43.992;2023-08-12T04:36:02;101310.13;;;24.10;50.55
69247;BME280;56358;56.328;43.992;2023-08-12T04:38:03;101339.31;;;24.33;50.34
69247;BME280;56358;56.328;43.992;2023-08-12T04:40:04;101340.44;;;24.38;49.86
69247;BME280;56358;56.328;43.992;2023-08-12T04:42:05;101316.72;;;24.31;49.73
69247;BME280;56358;56.328;43.992;2023-08-12T04:44:06;101324.56;;;24.49;49.50
69247;BME280;56358;56.328;43.992;2023-08-12T04:46:07;101284.88;;;24.30;49.53
69247;BME280;56358;56.328;43.992;2023-08-12T04:48:08;101330.88;;;24.64;49.64
69247;BME280;56358;56.328;43.992;2023-08-12T04:50:11;101336.44;;;24.71;49.43
69247;BME280;56358;56.328;43.992;2023-08-12T04:52:11;101326.03;;;24.81;48.90
69247;BME280;56358;56.328;43.992;2023-08-12T04:54:12;101329.28;;;24.91;48.54
69247;BME280;56358;56.328;43.992;2023-08-12T04:56:13;101332.97;;;24.99;48.65
69247;BME280;56358;56.328;43.992;2023-08-12T04:58:13;101226.84;;;24.41;47.92
69247;BME280;56358;56.328;43.992;2023-08-12T05:00:14;101233.91;;;24.50;48.15
69247;BME280;56358;56.328;43.992;2023-08-12T05:02:15;101332.44;;;25.10;47.37
69247;BME280;56358;56.328;43.992;2023-08-12T05:04:16;101340.09;;;25.15;47.08
69247;BME280;56358;56.328;43.992;2023-08-12T05:06:16;101281.94;;;24.83;47.03
69247;BME280;56358;56.328;43.992;2023-08-12T05:08:17;101338.03;;;25.23;47.07
69247;BME280;56358;56.328;43.992;2023-08-12T05:10:18;101338.97;;;25.31;46.54
69247;BME280;56358;56.328;43.992;2023-08-12T05:12:20;101325.56;;;25.36;46.16
69247;BME280;56358;56.328;43.992;2023-08-12T05:14:21;101335.47;;;25.37;46.17
69247;BME280;56358;56.328;43.992;2023-08-12T05:16:22;101276.13;;;25.14;46.05
69247;BME280;56358;56.328;43.992;2023-08-12T05:18:22;101337.53;;;25.56;46.18
69247;BME280;56358;56.328;43.992;2023-08-12T05:20:27;101340.09;;;25.58;46.22
69247;BME280;56358;56.328;43.992;2023-08-12T05:22:28;101345.00;;;25.63;46.62
69247;BME280;56358;56.328;43.992;2023-08-12T05:24:29;101320.41;;;25.54;46.30
69247;BME280;56358;56.328;43.992;2023-08-12T05:26:29;101334.56;;;25.80;45.91
69247;BME280;56358;56.328;43.992;2023-08-12T05:28:30;101312.31;;;25.74;45.87
69247;BME280;56358;56.328;43.992;2023-08-12T05:30:30;101340.19;;;26.00;45.01
69247;BME280;56358;56.328;43.992;2023-08-12T05:32:31;101342.41;;;26.11;45.07
69247;BME280;56358;56.328;43.992;2023-08-12T05:34:32;101347.09;;;26.17;45.05
69247;BME280;56358;56.328;43.992;2023-08-12T05:36:32;101346.25;;;26.17;44.82
69247;BME280;56358;56.328;43.992;2023-08-12T05:38:33;101334.19;;;26.11;44.61
69247;BME280;56358;56.328;43.992;2023-08-12T05:40:34;101290.28;;;25.89;44.54
69247;BME280;56358;56.328;43.992;2023-08-12T05:42:35;101348.16;;;26.16;44.34
69247;BME280;56358;56.328;43.992;2023-08-12T05:44:36;101345.41;;;26.16;44.47
69247;BME280;56358;56.328;43.992;2023-08-12T05:46:37;101350.03;;;26.16;44.32
69247;BME280;56358;56.328;43.992;2023-08-12T05:48:38;101349.16;;;26.08;44.69
69247;BME280;56358;56.328;43.992;2023-08-12T05:50:38;101304.59;;;25.85;44.71
69247;BME280;56358;56.328;43.992;2023-08-12T05:52:39;101364.88;;;26.21;45.08
69247;BME280;56358;56.328;43.992;2023-08-12T05:54:40;101312.34;;;26.03;45.05
69247;BME280;56358;56.328;43.992;2023-08-12T05:56:40;101356.91;;;26.33;44.86
69247;BME280;56358;56.328;43.992;2023-08-12T05:58:41;101353.34;;;26.39;44.39
69247;BME280;56358;56.328;43.992;2023-08-12T06:00:41;101365.16;;;26.33;44.61
69247;BME280;56358;56.328;43.992;2023-08-12T06:02:45;101360.56;;;26.40;44.69
69247;BME280;56358;56.328;43.992;2023-08-12T06:04:46;101366.75;;;26.56;44.56
69247;BME280;56358;56.328;43.992;2023-08-12T06:06:47;101368.69;;;26.62;44.10
69247;BME280;56358;56.328;43.992;2023-08-12T06:08:48;101372.47;;;26.61;43.53
69247;BME280;56358;56.328;43.992;2023-08-12T06:10:48;101360.41;;;26.55;44.19
69247;BME280;56358;56.328;43.992;2023-08-12T06:12:49;101376.50;;;26.58;43.87
69247;BME280;56358;56.328;43.992;2023-08-12T06:14:49;101311.03;;;26.34;44.03
69247;BME280;56358;56.328;43.992;2023-08-12T06:16:50;101331.22;;;26.54;43.90
69247;BME280;56358;56.328;43.992;2023-08-12T06:18:51;101363.75;;;26.86;43.62
69247;BME280;56358;56.328;43.992;2023-08-12T06:20:51;101366.72;;;26.98;44.16
69247;BME280;56358;56.328;43.992;2023-08-12T06:22:52;101365.25;;;27.02;43.27
69247;BME280;56358;56.328;43.992;2023-08-12T06:24:53;101371.81;;;27.01;43.16
69247;BME280;56358;56.328;43.992;2023-08-12T06:26:54;101355.34;;;27.07;43.47
69247;BME280;56358;56.328;43.992;2023-08-12T06:28:54;101359.16;;;27.13;43.01
69247;BME280;56358;56.328;43.992;2023-08-12T06:30:55;101355.34;;;27.14;42.78
69247;BME280;56358;56.328;43.992;2023-08-12T06:32:56;101352.84;;;27.26;42.75
69247;BME280;56358;56.328;43.992;2023-08-12T06:34:56;101360.03;;;27.34;42.40
69247;BME280;56358;56.328;43.992;2023-08-12T06:36:57;101327.63;;;27.29;41.77
69247;BME280;56358;56.328;43.992;2023-08-12T06:38:58;101350.31;;;27.51;41.61
69247;BME280;56358;56.328;43.992;2023-08-12T06:40:59;101345.47;;;27.53;41.23
69247;BME280;56358;56.328;43.992;2023-08-12T06:42:59;101352.25;;;27.51;41.43
69247;BME280;56358;56.328;43.992;2023-08-12T06:45:00;101345.47;;;27.60;41.46
69247;BME280;56358;56.328;43.992;2023-08-12T06:47:01;101349.69;;;27.63;41.44
69247;BME280;56358;56.328;43.992;2023-08-12T06:49:02;101344.63;;;27.66;41.12
69247;BME280;56358;56.328;43.992;2023-08-12T06:51:02;101286.38;;;27.42;41.93
69247;BME280;56358;56.328;43.992;2023-08-12T06:53:10;101341.22;;;27.77;42.06
69247;BME280;56358;56.328;43.992;2023-08-12T06:55:11;101326.59;;;27.77;40.91
69247;BME280;56358;56.328;43.992;2023-08-12T06:57:11;101333.78;;;27.91;40.21
69247;BME280;56358;56.328;43.992;2023-08-12T06:59:12;101315.13;;;27.93;40.17
69247;BME280;56358;56.328;43.992;2023-08-12T07:01:13;101323.19;;;28.02;39.27
69247;BME280;56358;56.328;43.992;2023-08-12T07:03:13;101308.97;;;27.98;39.58
69247;BME280;56358;56.328;43.992;2023-08-12T07:05:14;101312.56;;;28.12;39.35
69247;BME280;56358;56.328;43.992;2023-08-12T07:07:15;101314.66;;;28.23;39.91
69247;BME280;56358;56.328;43.992;2023-08-12T07:09:15;101317.00;;;28.26;39.85
69247;BME280;56358;56.328;43.992;2023-08-12T07:11:16;101311.03;;;28.30;39.61
69247;BME280;56358;56.328;43.992;2023-08-12T07:13:16;101305.53;;;28.30;39.19
69247;BME280;56358;56.328;43.992;2023-08-12T07:15:17;101322.47;;;28.33;39.78
69247;BME280;56358;56.328;43.992;2023-08-12T07:17:18;101276.53;;;28.07;39.63
69247;BME280;56358;56.328;43.992;2023-08-12T07:19:18;101311.47;;;28.26;40.57
69247;BME280;56358;56.328;43.992;2023-08-12T07:21:19;101307.38;;;28.36;40.28
69247;BME280;56358;56.328;43.992;2023-08-12T07:23:20;101309.06;;;28.43;40.15
69247;BME280;56358;56.328;43.992;2023-08-12T07:25:20;101317.97;;;28.46;38.72
69247;BME280;56358;56.328;43.992;2023-08-12T07:27:21;101307.53;;;28.54;39.10
69247;BME280;56358;56.328;43.992;2023-08-12T07:29:22;101219.28;;;28.09;39.55
69247;BME280;56358;56.328;43.992;2023-08-12T07:31:23;101318.50;;;28.74;38.82
69247;BME280;56358;56.328;43.992;2023-08-12T07:33:23;101317.69;;;28.67;38.66
69247;BME280;56358;56.328;43.992;2023-08-12T07:35:25;101313.00;;;28.68;39.04
69247;BME280;56358;56.328;43.992;2023-08-12T07:37:26;101306.22;;;28.64;39.05
69247;BME280;56358;56.328;43.992;2023-08-12T07:39:26;101261.41;;;28.30;38.31
69247;BME280;56358;56.328;43.992;2023-08-12T07:41:27;101303.28;;;28.52;38.41
69247;BME280;56358;56.328;43.992;2023-08-12T07:43:28;101285.69;;;28.53;38.50
69247;BME280;56358;56.328;43.992;2023-08-12T07:45:29;101301.75;;;28.69;38.22
69247;BME280;56358;56.328;43.992;2023-08-12T07:47:29;101303.66;;;28.69;37.43
69247;BME280;56358;56.328;43.992;2023-08-12T07:49:30;101303.63;;;28.75;38.16
69247;BME280;56358;56.328;43.992;2023-08-12T07:51:31;101295.81;;;28.72;37.61
69247;BME280;56358;56.328;43.992;2023-08-12T07:53:31;101240.13;;;28.43;37.71
69247;BME280;56358;56.328;43.992;2023-08-12T07:55:32;101301.44;;;28.91;37.52
69247;BME280;56358;56.328;43.992;2023-08-12T07:57:34;101291.03;;;28.86;36.84
69247;BME280;56358;56.328;43.992;2023-08-12T07:59:35;101266.97;;;28.68;36.44
69247;BME280;56358;56.328;43.992;2023-08-12T08:01:35;101292.97;;;28.86;36.30
69247;BME280;56358;56.328;43.992;2023-08-12T08:03:36;101300.22;;;28.80;35.82
69247;BME280;56358;56.328;43.992;2023-08-12T08:05:40;101299.59;;;28.78;36.10
69247;BME280;56358;56.328;43.992;2023-08-12T08:07:41;101314.56;;;28.96;36.00
69247;BME280;56358;56.328;43.992;2023-08-12T08:09:43;101306.88;;;29.04;34.90
69247;BME280;56358;56.328;43.992;2023-08-12T08:11:44;101314.69;;;29.07;34.88
69247;BME280;56358;56.328;43.992;2023-08-12T08:13:44;101304.50;;;29.08;35.24
69247;BME280;56358;56.328;43.992;2023-08-12T08:15:45;101278.03;;;29.00;34.75
69247;BME280;56358;56.328;43.992;2023-08-12T08:17:46;101296.97;;;29.22;34.92
69247;BME280;56358;56.328;43.992;2023-08-12T08:19:47;101293.13;;;29.30;34.35
69247;BME280;56358;56.328;43.992;2023-08-12T08:21:47;101249.69;;;29.12;34.88
69247;BME280;56358;56.328;43.992;2023-08-12T08:23:48;101284.09;;;29.41;34.65
69247;BME280;56358;56.328;43.992;2023-08-12T08:25:48;101295.78;;;29.43;33.77
69247;BME280;56358;56.328;43.992;2023-08-12T08:27:49;101294.50;;;29.39;34.05
69247;BME280;56358;56.328;43.992;2023-08-12T08:29:50;101230.66;;;29.03;33.16
69247;BME280;56358;56.328;43.992;2023-08-12T08:31:50;101276.50;;;29.36;33.23
69247;BME280;56358;56.328;43.992;2023-08-12T08:33:51;101292.09;;;29.49;33.63
69247;BME280;56358;56.328;43.992;2023-08-12T08:35:53;101301.78;;;29.58;33.62
69247;BME280;56358;56.328;43.992;2023-08-12T08:37:54;101286.50;;;29.56;33.23
69247;BME280;56358;56.328;43.992;2023-08-12T08:39:55;101253.09;;;29.39;33.88
69247;BME280;56358;56.328;43.992;2023-08-12T08:41:56;101299.28;;;29.75;32.75
69247;BME280;56358;56.328;43.992;2023-08-12T08:44:01;101297.81;;;29.73;32.56
69247;BME280;56358;56.328;43.992;2023-08-12T08:46:04;101285.31;;;29.70;33.70
69247;BME280;56358;56.328;43.992;2023-08-12T08:48:07;101297.81;;;29.73;33.12
69247;BME280;56358;56.328;43.992;2023-08-12T08:50:09;101272.97;;;29.73;32.22
69247;BME280;56358;56.328;43.992;2023-08-12T08:52:10;101308.34;;;29.83;32.22
69247;BME280;56358;56.328;43.992;2023-08-12T08:54:11;101277.19;;;29.75;32.38
69247;BME280;56358;56.328;43.992;2023-08-12T08:56:12;101267.59;;;29.78;32.03
69247;BME280;56358;56.328;43.992;2023-08-12T08:58:13;101225.34;;;29.52;32.21
69247;BME280;56358;56.328;43.992;2023-08-12T09:00:16;101284.22;;;29.97;31.82
69247;BME280;56358;56.328;43.992;2023-08-12T09:02:17;101276.28;;;30.00;31.75
69247;BME280;56358;56.328;43.992;2023-08-12T09:04:21;101259.53;;;29.76;32.24
69247;BME280;56358;56.328;43.992;2023-08-12T09:06:26;101279.00;;;30.07;32.33
69247;BME280;56358;56.328;43.992;2023-08-12T09:08:29;101269.69;;;30.20;32.21
69247;BME280;56358;56.328;43.992;2023-08-12T09:10:32;101226.69;;;29.87;32.51
69247;BME280;56358;56.328;43.992;2023-08-12T09:12:33;101285.72;;;30.30;32.09
69247;BME280;56358;56.328;43.992;2023-08-12T09:14:34;101188.38;;;29.72;32.00
69247;BME280;56358;56.328;43.992;2023-08-12T09:16:35;101285.25;;;30.33;32.25
69247;BME280;56358;56.328;43.992;2023-08-12T09:18:37;101284.81;;;30.36;31.39
69247;BME280;56358;56.328;43.992;2023-08-12T09:20:37;101219.09;;;30.01;31.66
69247;BME280;56358;56.328;43.992;2023-08-12T09:22:40;101273.91;;;30.41;31.36
69247;BME280;56358;56.328;43.992;2023-08-12T09:24:42;101287.25;;;30.63;31.98
69247;BME280;56358;56.328;43.992;2023-08-12T09:26:43;101283.03;;;30.90;31.04
69247;BME280;56358;56.328;43.992;2023-08-12T09:28:44;101274.22;;;31.12;30.63
69247;BME280;56358;56.328;43.992;2023-08-12T09:30:52;101294.50;;;31.48;30.06
69247;BME280;56358;56.328;43.992;2023-08-12T09:33:04;101299.94;;;31.67;29.97
69247;BME280;56358;56.328;43.992;2023-08-12T09:35:15;101287.38;;;31.88;30.06
69247;BME280;56358;56.328;43.992;2023-08-12T09:37:18;101284.47;;;32.06;29.63
69247;BME280;56358;56.328;43.992;2023-08-12T09:39:19;101282.66;;;32.24;29.61
69247;BME280;56358;56.328;43.992;2023-08-12T09:41:22;101280.53;;;32.43;29.38
69247;BME280;56358;56.328;43.992;2023-08-12T09:43:24;101279.50;;;32.73;29.08
69247;BME280;56358;56.328;43.992;2023-08-12T09:45:25;101290.75;;;32.83;28.83
69247;BME280;56358;56.328;43.992;2023-08-12T09:47:26;101283.53;;;33.28;28.40
69247;BME280;56358;56.328;43.992;2023-08-12T09:49:30;101281.50;;;33.40;28.01
69247;BME280;56358;56.328;43.992;2023-08-12T09:51:35;101265.34;;;33.37;27.68
69247;BME280;56358;56.328;43.992;2023-08-12T09:53:37;101266.88;;;33.84;27.51
69247;BME280;56358;56.328;43.992;2023-08-12T09:55:38;101280.91;;;34.34;27.54
69247;BME280;56358;56.328;43.992;2023-08-12T09:57:42;101273.25;;;34.46;26.47
69247;BME280;56358;56.328;43.992;2023-08-12T09:59:45;101262.81;;;34.14;26.17
69247;BME280;56358;56.328;43.992;2023-08-12T10:01:47;101260.34;;;34.35;25.91
69247;BME280;56358;56.328;43.992;2023-08-12T10:03:50;101253.50;;;34.75;25.50
69247;BME280;56358;56.328;43.992;2023-08-12T10:05:51;101269.78;;;34.83;25.47
69247;BME280;56358;56.328;43.992;2023-08-12T10:07:53;101281.25;;;35.19;25.19
69247;BME280;56358;56.328;43.992;2023-08-12T10:09:54;101267.94;;;35.32;24.74
69247;BME280;56358;56.328;43.992;2023-08-12T10:11:55;101263.47;;;35.68;24.27
69247;BME280;56358;56.328;43.992;2023-08-12T10:13:56;101163.25;;;35.41;23.91
69247;BME280;56358;56.328;43.992;2023-08-12T10:15:57;101268.16;;;36.05;23.51
69247;BME280;56358;56.328;43.992;2023-08-12T10:17:58;101266.50;;;36.10;23.55
69247;BME280;56358;56.328;43.992;2023-08-12T10:20:01;101271.03;;;36.26;23.32
69247;BME280;56358;56.328;43.992;2023-08-12T10:22:05;101270.53;;;36.34;22.73
69247;BME280;56358;56.328;43.992;2023-08-12T10:24:07;101271.59;;;36.28;22.91
69247;BME280;56358;56.328;43.992;2023-08-12T10:26:09;101269.91;;;36.27;22.78
69247;BME280;56358;56.328;43.992;2023-08-12T10:28:11;101275.22;;;36.18;22.83